sensor_id;sensor_type;location;lat;lon;timestamp;P1;durP1;ratioP1;P2;durP2;ratioP2
6392;SDS011;3229;42.674;23.282;2024-02-21T00:00:46;4.13;;;3.73;;
6392;SDS011;3229;42.674;23.282;2024-02-21T00:03:13;3.90;;;3.60;;
6392;SDS011;3229;42.674;23.282;2024-02-21T00:05:40;4.30;;;3.90;;
6392;SDS011;3229;42.674;23.282;2024-02-21T00:08:07;4.17;;;3.77;;
6392;SDS011;3229;42.674;23.282;2024-02-21T00:10:35;3.70;;;3.40;;
6392;SDS011;3229;42.674;23.282;2024-02-21T00:13:02;4.50;;;4.10;;
6392;SDS011;3229;42.674;23.282;2024-02-21T00:15:29;4.23;;;3.83;;
6392;SDS011;3229;42.674;23.282;2024-02-21T00:17:55;4.30;;;3.90;;
6392;SDS011;3229;42.674;23.282;2024-02-21T00:20:22;4.57;;;4.17;;
6392;SDS011;3229;42.674;23.282;2024-02-21T00:22:50;4.30;;;3.90;;
6392;SDS011;3229;42.674;23.282;2024-02-21T00:25:17;3.70;;;3.40;;
6392;SDS011;3229;42.674;23.282;2024-02-21T00:27:46;3.97;;;3.63;;
6392;SDS011;3229;42.674;23.282;2024-02-21T00:30:12;3.97;;;3.67;;
6392;SDS011;3229;42.674;23.282;2024-02-21T00:32:39;4.87;;;4.33;;
6392;SDS011;3229;42.674;23.282;2024-02-21T00:35:06;3.93;;;3.63;;
6392;SDS011;3229;42.674;23.282;2024-02-21T00:37:33;3.97;;;3.57;;
6392;SDS011;3229;42.674;23.282;2024-02-21T00:40:00;3.87;;;3.47;;
6392;SDS011;3229;42.674;23.282;2024-02-21T00:42:27;4.17;;;3.77;;
6392;SDS011;3229;42.674;23.282;2024-02-21T00:44:55;4.00;;;3.60;;
6392;SDS011;3229;42.674;23.282;2024-02-21T00:47:21;4.07;;;3.50;;
6392;SDS011;3229;42.674;23.282;2024-02-21T00:49:48;3.70;;;3.40;;
6392;SDS011;3229;42.674;23.282;2024-02-21T00:52:15;4.20;;;3.80;;
6392;SDS011;3229;42.674;23.282;2024-02-21T00:54:42;4.20;;;3.53;;
6392;SDS011;3229;42.674;23.282;2024-02-21T00:57:08;3.70;;;3.40;;
6392;SDS011;3229;42.674;23.282;2024-02-21T00:59:35;3.47;;;3.17;;
6392;SDS011;3229;42.674;23.282;2024-02-21T01:02:03;4.20;;;3.80;;
6392;SDS011;3229;42.674;23.282;2024-02-21T01:04:30;3.60;;;3.30;;
6392;SDS011;3229;42.674;23.282;2024-02-21T01:06:57;3.87;;;3.53;;
6392;SDS011;3229;42.674;23.282;2024-02-21T01:09:24;4.13;;;3.73;;
6392;SDS011;3229;42.674;23.282;2024-02-21T01:11:50;4.40;;;3.50;;
6392;SDS011;3229;42.674;23.282;2024-02-21T01:14:17;3.87;;;3.47;;
6392;SDS011;3229;42.674;23.282;2024-02-21T01:16:44;3.50;;;3.20;;
6392;SDS011;3229;42.674;23.282;2024-02-21T01:19:12;4.30;;;3.90;;
6392;SDS011;3229;42.674;23.282;2024-02-21T01:21:39;3.60;;;3.30;;
6392;SDS011;3229;42.674;23.282;2024-02-21T01:24:06;3.63;;;3.23;;
6392;SDS011;3229;42.674;23.282;2024-02-21T01:26:32;3.60;;;3.30;;
6392;SDS011;3229;42.674;23.282;2024-02-21T01:29:00;4.27;;;3.73;;
6392;SDS011;3229;42.674;23.282;2024-02-21T01:31:26;3.93;;;3.57;;
6392;SDS011;3229;42.674;23.282;2024-02-21T01:33:53;3.60;;;3.30;;
6392;SDS011;3229;42.674;23.282;2024-02-21T01:36:22;4.53;;;3.50;;
6392;SDS011;3229;42.674;23.282;2024-02-21T01:38:49;4.20;;;3.80;;
6392;SDS011;3229;42.674;23.282;2024-02-21T01:41:15;4.13;;;3.80;;
6392;SDS011;3229;42.674;23.282;2024-02-21T01:43:42;4.43;;;4.00;;
6392;SDS011;3229;42.674;23.282;2024-02-21T01:46:09;4.50;;;4.10;;
6392;SDS011;3229;42.674;23.282;2024-02-21T01:48:36;4.37;;;3.97;;
6392;SDS011;3229;42.674;23.282;2024-02-21T01:51:03;4.20;;;3.80;;
6392;SDS011;3229;42.674;23.282;2024-02-21T01:53:32;4.30;;;3.90;;
6392;SDS011;3229;42.674;23.282;2024-02-21T01:56:03;3.63;;;3.33;;
6392;SDS011;3229;42.674;23.282;2024-02-21T01:58:31;3.73;;;3.33;;
6392;SDS011;3229;42.674;23.282;2024-02-21T02:01:02;4.20;;;3.80;;
6392;SDS011;3229;42.674;23.282;2024-02-21T02:03:29;4.87;;;4.30;;
6392;SDS011;3229;42.674;23.282;2024-02-21T02:05:56;4.00;;;3.60;;
6392;SDS011;3229;42.674;23.282;2024-02-21T02:08:23;4.10;;;3.70;;
6392;SDS011;3229;42.674;23.282;2024-02-21T02:10:51;4.10;;;3.70;;
6392;SDS011;3229;42.674;23.282;2024-02-21T02:13:18;5.13;;;4.47;;
6392;SDS011;3229;42.674;23.282;2024-02-21T02:15:45;3.87;;;3.57;;
6392;SDS011;3229;42.674;23.282;2024-02-21T02:18:14;4.67;;;4.27;;
6392;SDS011;3229;42.674;23.282;2024-02-21T02:20:42;5.17;;;4.53;;
6392;SDS011;3229;42.674;23.282;2024-02-21T02:23:11;4.50;;;4.10;;
6392;SDS011;3229;42.674;23.282;2024-02-21T02:25:39;5.30;;;4.30;;
6392;SDS011;3229;42.674;23.282;2024-02-21T02:28:06;4.90;;;4.40;;
6392;SDS011;3229;42.674;23.282;2024-02-21T02:30:34;4.50;;;4.10;;
6392;SDS011;3229;42.674;23.282;2024-02-21T02:33:01;5.23;;;4.73;;
6392;SDS011;3229;42.674;23.282;2024-02-21T02:35:28;4.80;;;4.37;;
6392;SDS011;3229;42.674;23.282;2024-02-21T02:37:55;4.93;;;4.40;;
6392;SDS011;3229;42.674;23.282;2024-02-21T02:40:22;4.97;;;4.50;;
6392;SDS011;3229;42.674;23.282;2024-02-21T02:42:51;5.30;;;4.80;;
6392;SDS011;3229;42.674;23.282;2024-02-21T02:45:20;5.87;;;5.20;;
6392;SDS011;3229;42.674;23.282;2024-02-21T02:47:48;5.73;;;4.97;;
6392;SDS011;3229;42.674;23.282;2024-02-21T02:50:14;5.43;;;4.87;;
6392;SDS011;3229;42.674;23.282;2024-02-21T02:52:41;5.00;;;4.50;;
6392;SDS011;3229;42.674;23.282;2024-02-21T02:55:08;5.37;;;4.87;;
6392;SDS011;3229;42.674;23.282;2024-02-21T02:57:35;5.43;;;4.93;;
6392;SDS011;3229;42.674;23.282;2024-02-21T03:00:04;5.40;;;4.90;;
6392;SDS011;3229;42.674;23.282;2024-02-21T03:02:32;5.20;;;4.70;;
6392;SDS011;3229;42.674;23.282;2024-02-21T03:04:57;7.00;;;5.20;;
6392;SDS011;3229;42.674;23.282;2024-02-21T03:07:25;6.13;;;5.47;;
6392;SDS011;3229;42.674;23.282;2024-02-21T03:09:52;5.97;;;5.37;;
6392;SDS011;3229;42.674;23.282;2024-02-21T03:12:19;5.40;;;4.80;;
6392;SDS011;3229;42.674;23.282;2024-02-21T03:14:52;5.87;;;5.17;;
6392;SDS011;3229;42.674;23.282;2024-02-21T03:17:20;5.27;;;4.70;;
6392;SDS011;3229;42.674;23.282;2024-02-21T03:19:48;6.33;;;4.50;;
6392;SDS011;3229;42.674;23.282;2024-02-21T03:22:15;5.37;;;4.87;;
6392;SDS011;3229;42.674;23.282;2024-02-21T03:24:41;5.93;;;5.30;;
6392;SDS011;3229;42.674;23.282;2024-02-21T03:27:08;5.87;;;5.30;;
6392;SDS011;3229;42.674;23.282;2024-02-21T03:29:37;5.93;;;5.33;;
6392;SDS011;3229;42.674;23.282;2024-02-21T03:32:04;6.30;;;5.50;;
6392;SDS011;3229;42.674;23.282;2024-02-21T03:34:32;5.77;;;5.27;;
6392;SDS011;3229;42.674;23.282;2024-02-21T03:36:59;5.93;;;5.37;;
6392;SDS011;3229;42.674;23.282;2024-02-21T03:39:26;6.60;;;5.40;;
6392;SDS011;3229;42.674;23.282;2024-02-21T03:41:52;5.93;;;5.30;;
6392;SDS011;3229;42.674;23.282;2024-02-21T03:44:19;5.50;;;5.00;;
6392;SDS011;3229;42.674;23.282;2024-02-21T03:46:46;6.30;;;5.70;;
6392;SDS011;3229;42.674;23.282;2024-02-21T03:49:13;5.93;;;5.37;;
6392;SDS011;3229;42.674;23.282;2024-02-21T03:51:41;5.70;;;5.13;;
6392;SDS011;3229;42.674;23.282;2024-02-21T03:54:08;7.17;;;6.43;;
6392;SDS011;3229;42.674;23.282;2024-02-21T03:56:36;5.97;;;5.30;;
6392;SDS011;3229;42.674;23.282;2024-02-21T03:59:05;6.53;;;5.23;;
6392;SDS011;3229;42.674;23.282;2024-02-21T04:01:31;6.83;;;5.97;;
6392;SDS011;3229;42.674;23.282;2024-02-21T04:03:58;6.37;;;5.77;;
6392;SDS011;3229;42.674;23.282;2024-02-21T04:06:25;7.13;;;6.07;;
6392;SDS011;3229;42.674;23.282;2024-02-21T04:08:53;6.50;;;5.73;;
6392;SDS011;3229;42.674;23.282;2024-02-21T04:11:20;6.10;;;5.50;;
6392;SDS011;3229;42.674;23.282;2024-02-21T04:13:47;7.27;;;6.27;;
6392;SDS011;3229;42.674;23.282;2024-02-21T04:16:15;6.63;;;5.63;;
6392;SDS011;3229;42.674;23.282;2024-02-21T04:18:42;7.07;;;5.73;;
6392;SDS011;3229;42.674;23.282;2024-02-21T04:21:09;6.40;;;5.80;;
6392;SDS011;3229;42.674;23.282;2024-02-21T04:23:36;6.70;;;6.00;;
6392;SDS011;3229;42.674;23.282;2024-02-21T04:26:04;7.00;;;6.30;;
6392;SDS011;3229;42.674;23.282;2024-02-21T04:28:31;7.00;;;6.30;;
6392;SDS011;3229;42.674;23.282;2024-02-21T04:30:58;6.63;;;5.93;;
6392;SDS011;3229;42.674;23.282;2024-02-21T04:33:25;7.10;;;6.40;;
6392;SDS011;3229;42.674;23.282;2024-02-21T04:35:52;8.03;;;6.60;;
6392;SDS011;3229;42.674;23.282;2024-02-21T04:38:20;7.10;;;6.40;;
6392;SDS011;3229;42.674;23.282;2024-02-21T04:40:47;8.27;;;7.10;;
6392;SDS011;3229;42.674;23.282;2024-02-21T04:43:15;10.13;;;6.50;;
6392;SDS011;3229;42.674;23.282;2024-02-21T04:45:42;7.53;;;6.77;;
6392;SDS011;3229;42.674;23.282;2024-02-21T04:48:08;8.97;;;7.17;;
6392;SDS011;3229;42.674;23.282;2024-02-21T04:50:35;7.50;;;6.37;;
6392;SDS011;3229;42.674;23.282;2024-02-21T04:53:02;8.10;;;6.70;;
6392;SDS011;3229;42.674;23.282;2024-02-21T04:55:29;8.63;;;6.53;;
6392;SDS011;3229;42.674;23.282;2024-02-21T04:57:56;7.03;;;6.37;;
6392;SDS011;3229;42.674;23.282;2024-02-21T05:00:24;8.73;;;6.83;;
6392;SDS011;3229;42.674;23.282;2024-02-21T05:02:51;11.23;;;7.87;;
6392;SDS011;3229;42.674;23.282;2024-02-21T05:05:18;7.97;;;6.77;;
6392;SDS011;3229;42.674;23.282;2024-02-21T05:07:46;7.90;;;6.70;;
6392;SDS011;3229;42.674;23.282;2024-02-21T05:10:13;9.60;;;7.10;;
6392;SDS011;3229;42.674;23.282;2024-02-21T05:12:40;7.23;;;6.53;;
6392;SDS011;3229;42.674;23.282;2024-02-21T05:15:07;10.50;;;6.93;;
6392;SDS011;3229;42.674;23.282;2024-02-21T05:17:35;8.17;;;7.33;;
6392;SDS011;3229;42.674;23.282;2024-02-21T05:20:02;10.27;;;7.27;;
6392;SDS011;3229;42.674;23.282;2024-02-21T05:22:30;7.73;;;6.67;;
6392;SDS011;3229;42.674;23.282;2024-02-21T05:24:57;7.73;;;6.70;;
6392;SDS011;3229;42.674;23.282;2024-02-21T05:27:24;9.07;;;7.50;;
6392;SDS011;3229;42.674;23.282;2024-02-21T05:29:51;8.33;;;7.07;;
6392;SDS011;3229;42.674;23.282;2024-02-21T05:32:19;8.47;;;7.17;;
6392;SDS011;3229;42.674;23.282;2024-02-21T05:34:49;10.70;;;8.17;;
6392;SDS011;3229;42.674;23.282;2024-02-21T05:37:16;9.93;;;7.07;;
6392;SDS011;3229;42.674;23.282;2024-02-21T05:39:43;8.40;;;6.87;;
6392;SDS011;3229;42.674;23.282;2024-02-21T05:42:10;7.10;;;6.40;;
6392;SDS011;3229;42.674;23.282;2024-02-21T05:44:37;9.60;;;7.37;;
6392;SDS011;3229;42.674;23.282;2024-02-21T05:47:04;10.53;;;7.73;;
6392;SDS011;3229;42.674;23.282;2024-02-21T05:49:35;8.87;;;7.40;;
6392;SDS011;3229;42.674;23.282;2024-02-21T05:52:03;8.17;;;7.23;;
6392;SDS011;3229;42.674;23.282;2024-02-21T05:54:31;7.93;;;7.13;;
6392;SDS011;3229;42.674;23.282;2024-02-21T05:56:57;10.57;;;7.97;;
6392;SDS011;3229;42.674;23.282;2024-02-21T05:59:24;10.67;;;8.07;;
6392;SDS011;3229;42.674;23.282;2024-02-21T06:01:57;11.20;;;7.63;;
6392;SDS011;3229;42.674;23.282;2024-02-21T06:04:24;10.40;;;8.00;;
6392;SDS011;3229;42.674;23.282;2024-02-21T06:06:51;9.07;;;7.93;;
6392;SDS011;3229;42.674;23.282;2024-02-21T06:09:19;14.07;;;9.43;;
6392;SDS011;3229;42.674;23.282;2024-02-21T06:11:46;11.93;;;9.20;;
6392;SDS011;3229;42.674;23.282;2024-02-21T06:14:14;15.07;;;9.27;;
6392;SDS011;3229;42.674;23.282;2024-02-21T06:16:41;15.20;;;8.83;;
6392;SDS011;3229;42.674;23.282;2024-02-21T06:19:09;10.33;;;6.70;;
6392;SDS011;3229;42.674;23.282;2024-02-21T06:21:36;11.87;;;7.33;;
6392;SDS011;3229;42.674;23.282;2024-02-21T06:24:03;12.13;;;7.13;;
6392;SDS011;3229;42.674;23.282;2024-02-21T06:26:32;10.23;;;7.47;;
6392;SDS011;3229;42.674;23.282;2024-02-21T06:28:59;12.57;;;7.50;;
6392;SDS011;3229;42.674;23.282;2024-02-21T06:31:28;8.03;;;7.20;;
6392;SDS011;3229;42.674;23.282;2024-02-21T06:33:56;9.60;;;7.43;;
6392;SDS011;3229;42.674;23.282;2024-02-21T06:36:23;9.43;;;6.97;;
6392;SDS011;3229;42.674;23.282;2024-02-21T06:38:50;9.03;;;7.00;;
6392;SDS011;3229;42.674;23.282;2024-02-21T06:41:17;11.27;;;7.03;;
6392;SDS011;3229;42.674;23.282;2024-02-21T06:43:46;10.57;;;8.40;;
6392;SDS011;3229;42.674;23.282;2024-02-21T06:46:22;12.67;;;7.50;;
6392;SDS011;3229;42.674;23.282;2024-02-21T06:48:49;8.63;;;7.50;;
6392;SDS011;3229;42.674;23.282;2024-02-21T06:51:16;12.47;;;8.27;;
6392;SDS011;3229;42.674;23.282;2024-02-21T06:53:42;7.77;;;6.87;;
6392;SDS011;3229;42.674;23.282;2024-02-21T06:56:10;12.43;;;8.53;;
6392;SDS011;3229;42.674;23.282;2024-02-21T06:58:37;10.10;;;7.93;;
6392;SDS011;3229;42.674;23.282;2024-02-21T07:01:05;8.37;;;7.50;;
6392;SDS011;3229;42.674;23.282;2024-02-21T07:03:32;10.00;;;8.30;;
6392;SDS011;3229;42.674;23.282;2024-02-21T07:05:59;10.17;;;7.27;;
6392;SDS011;3229;42.674;23.282;2024-02-21T07:08:25;11.30;;;7.63;;
6392;SDS011;3229;42.674;23.282;2024-02-21T07:10:52;12.03;;;8.03;;
6392;SDS011;3229;42.674;23.282;2024-02-21T07:13:19;8.70;;;7.47;;
6392;SDS011;3229;42.674;23.282;2024-02-21T07:15:46;9.73;;;7.37;;
6392;SDS011;3229;42.674;23.282;2024-02-21T07:18:15;9.97;;;8.47;;
6392;SDS011;3229;42.674;23.282;2024-02-21T07:20:42;9.77;;;8.20;;
6392;SDS011;3229;42.674;23.282;2024-02-21T07:23:09;11.60;;;7.33;;
6392;SDS011;3229;42.674;23.282;2024-02-21T07:25:36;8.67;;;7.43;;
6392;SDS011;3229;42.674;23.282;2024-02-21T07:28:03;8.73;;;7.70;;
6392;SDS011;3229;42.674;23.282;2024-02-21T07:30:30;8.97;;;8.00;;
6392;SDS011;3229;42.674;23.282;2024-02-21T07:32:56;9.73;;;8.43;;
6392;SDS011;3229;42.674;23.282;2024-02-21T07:35:24;9.33;;;8.43;;
6392;SDS011;3229;42.674;23.282;2024-02-21T07:37:51;9.73;;;8.20;;
6392;SDS011;3229;42.674;23.282;2024-02-21T07:40:18;9.30;;;7.60;;
6392;SDS011;3229;42.674;23.282;2024-02-21T07:42:45;9.60;;;8.23;;
6392;SDS011;3229;42.674;23.282;2024-02-21T07:45:11;9.73;;;7.67;;
6392;SDS011;3229;42.674;23.282;2024-02-21T07:47:38;8.50;;;7.17;;
6392;SDS011;3229;42.674;23.282;2024-02-21T07:50:05;7.70;;;6.90;;
6392;SDS011;3229;42.674;23.282;2024-02-21T07:52:34;10.07;;;8.13;;
6392;SDS011;3229;42.674;23.282;2024-02-21T07:55:01;9.63;;;8.23;;
6392;SDS011;3229;42.674;23.282;2024-02-21T07:57:28;9.47;;;8.10;;
6392;SDS011;3229;42.674;23.282;2024-02-21T07:59:55;14.40;;;8.27;;
6392;SDS011;3229;42.674;23.282;2024-02-21T08:02:22;10.10;;;8.40;;
6392;SDS011;3229;42.674;23.282;2024-02-21T08:04:48;8.37;;;7.50;;
6392;SDS011;3229;42.674;23.282;2024-02-21T08:07:15;8.43;;;7.63;;
6392;SDS011;3229;42.674;23.282;2024-02-21T08:09:43;6.67;;;5.67;;
6392;SDS011;3229;42.674;23.282;2024-02-21T08:12:10;9.23;;;5.33;;
6392;SDS011;3229;42.674;23.282;2024-02-21T08:14:37;7.50;;;6.30;;
6392;SDS011;3229;42.674;23.282;2024-02-21T08:17:03;9.27;;;6.83;;
6392;SDS011;3229;42.674;23.282;2024-02-21T08:19:30;7.87;;;6.17;;
6392;SDS011;3229;42.674;23.282;2024-02-21T08:21:57;6.77;;;6.07;;
6392;SDS011;3229;42.674;23.282;2024-02-21T08:24:24;7.90;;;6.53;;
6392;SDS011;3229;42.674;23.282;2024-02-21T08:26:52;7.27;;;6.40;;
6392;SDS011;3229;42.674;23.282;2024-02-21T08:29:18;8.37;;;6.83;;
6392;SDS011;3229;42.674;23.282;2024-02-21T08:31:45;10.67;;;7.47;;
6392;SDS011;3229;42.674;23.282;2024-02-21T08:34:12;6.97;;;6.37;;
6392;SDS011;3229;42.674;23.282;2024-02-21T08:36:39;8.77;;;6.90;;
6392;SDS011;3229;42.674;23.282;2024-02-21T08:39:06;8.70;;;6.60;;
6392;SDS011;3229;42.674;23.282;2024-02-21T08:41:34;7.20;;;6.50;;
6392;SDS011;3229;42.674;23.282;2024-02-21T08:44:03;7.37;;;6.37;;
6392;SDS011;3229;42.674;23.282;2024-02-21T08:46:29;8.67;;;7.00;;
6392;SDS011;3229;42.674;23.282;2024-02-21T08:48:56;6.07;;;5.57;;
6392;SDS011;3229;42.674;23.282;2024-02-21T08:51:23;6.63;;;6.03;;
6392;SDS011;3229;42.674;23.282;2024-02-21T08:53:50;6.43;;;5.80;;
6392;SDS011;3229;42.674;23.282;2024-02-21T08:56:17;6.33;;;5.70;;
6392;SDS011;3229;42.674;23.282;2024-02-21T08:58:44;7.03;;;6.33;;
6392;SDS011;3229;42.674;23.282;2024-02-21T09:01:13;6.17;;;5.57;;
6392;SDS011;3229;42.674;23.282;2024-02-21T09:03:40;6.50;;;5.90;;
6392;SDS011;3229;42.674;23.282;2024-02-21T09:06:07;6.27;;;5.67;;
6392;SDS011;3229;42.674;23.282;2024-02-21T09:08:35;6.30;;;5.50;;
6392;SDS011;3229;42.674;23.282;2024-02-21T09:11:02;6.43;;;5.93;;
6392;SDS011;3229;42.674;23.282;2024-02-21T09:13:29;7.37;;;6.47;;
6392;SDS011;3229;42.674;23.282;2024-02-21T09:15:56;6.43;;;5.70;;
6392;SDS011;3229;42.674;23.282;2024-02-21T09:18:24;8.20;;;5.80;;
6392;SDS011;3229;42.674;23.282;2024-02-21T09:20:51;6.53;;;5.93;;
6392;SDS011;3229;42.674;23.282;2024-02-21T09:23:18;6.65;;;5.95;;
6392;SDS011;3229;42.674;23.282;2024-02-21T09:25:45;6.17;;;5.27;;
6392;SDS011;3229;42.674;23.282;2024-02-21T09:28:12;7.50;;;5.43;;
6392;SDS011;3229;42.674;23.282;2024-02-21T09:30:39;7.23;;;6.13;;
6392;SDS011;3229;42.674;23.282;2024-02-21T09:33:06;6.53;;;5.63;;
6392;SDS011;3229;42.674;23.282;2024-02-21T09:35:34;6.00;;;5.50;;
6392;SDS011;3229;42.674;23.282;2024-02-21T09:38:01;7.50;;;5.97;;
6392;SDS011;3229;42.674;23.282;2024-02-21T09:40:28;5.60;;;5.10;;
6392;SDS011;3229;42.674;23.282;2024-02-21T09:42:56;6.17;;;5.57;;
6392;SDS011;3229;42.674;23.282;2024-02-21T09:45:30;5.85;;;5.35;;
6392;SDS011;3229;42.674;23.282;2024-02-21T09:50:51;6.53;;;5.80;;
6392;SDS011;3229;42.674;23.282;2024-02-21T09:53:21;6.17;;;5.57;;
6392;SDS011;3229;42.674;23.282;2024-02-21T09:55:50;6.90;;;5.80;;
6392;SDS011;3229;42.674;23.282;2024-02-21T09:58:17;5.90;;;5.30;;
6392;SDS011;3229;42.674;23.282;2024-02-21T10:00:44;6.40;;;5.70;;
6392;SDS011;3229;42.674;23.282;2024-02-21T10:03:11;5.67;;;5.00;;
6392;SDS011;3229;42.674;23.282;2024-02-21T10:05:38;5.93;;;5.43;;
6392;SDS011;3229;42.674;23.282;2024-02-21T10:08:07;5.53;;;5.03;;
6392;SDS011;3229;42.674;23.282;2024-02-21T10:10:40;5.53;;;5.03;;
6392;SDS011;3229;42.674;23.282;2024-02-21T10:13:09;5.93;;;5.37;;
6392;SDS011;3229;42.674;23.282;2024-02-21T10:15:36;5.70;;;5.20;;
6392;SDS011;3229;42.674;23.282;2024-02-21T10:18:04;6.57;;;5.47;;
6392;SDS011;3229;42.674;23.282;2024-02-21T10:20:31;6.03;;;5.00;;
6392;SDS011;3229;42.674;23.282;2024-02-21T10:23:01;5.87;;;5.27;;
6392;SDS011;3229;42.674;23.282;2024-02-21T10:25:34;6.30;;;5.70;;
6392;SDS011;3229;42.674;23.282;2024-02-21T10:28:03;5.43;;;4.87;;
6392;SDS011;3229;42.674;23.282;2024-02-21T10:30:30;5.97;;;5.37;;
6392;SDS011;3229;42.674;23.282;2024-02-21T10:32:57;5.80;;;5.30;;
6392;SDS011;3229;42.674;23.282;2024-02-21T10:35:27;5.23;;;4.73;;
6392;SDS011;3229;42.674;23.282;2024-02-21T10:37:55;5.60;;;4.97;;
6392;SDS011;3229;42.674;23.282;2024-02-21T10:40:23;5.87;;;5.30;;
6392;SDS011;3229;42.674;23.282;2024-02-21T10:42:54;4.50;;;4.10;;
6392;SDS011;3229;42.674;23.282;2024-02-21T10:45:25;5.27;;;4.77;;
6392;SDS011;3229;42.674;23.282;2024-02-21T10:47:56;5.07;;;4.63;;
6392;SDS011;3229;42.674;23.282;2024-02-21T10:50:32;4.43;;;4.03;;
6392;SDS011;3229;42.674;23.282;2024-02-21T10:53:09;4.73;;;4.33;;
6392;SDS011;3229;42.674;23.282;2024-02-21T10:55:51;5.13;;;4.73;;
6392;SDS011;3229;42.674;23.282;2024-02-21T10:58:26;4.63;;;4.23;;
6392;SDS011;3229;42.674;23.282;2024-02-21T11:00:55;4.87;;;4.40;;
6392;SDS011;3229;42.674;23.282;2024-02-21T11:03:22;4.83;;;4.37;;
6392;SDS011;3229;42.674;23.282;2024-02-21T11:05:49;4.10;;;3.80;;
6392;SDS011;3229;42.674;23.282;2024-02-21T11:08:16;4.97;;;4.50;;
6392;SDS011;3229;42.674;23.282;2024-02-21T11:10:45;4.03;;;3.73;;
6392;SDS011;3229;42.674;23.282;2024-02-21T11:13:12;4.60;;;4.20;;
6392;SDS011;3229;42.674;23.282;2024-02-21T11:15:41;4.00;;;3.63;;
6392;SDS011;3229;42.674;23.282;2024-02-21T11:18:08;4.33;;;4.03;;
6392;SDS011;3229;42.674;23.282;2024-02-21T11:20:35;4.43;;;4.03;;
6392;SDS011;3229;42.674;23.282;2024-02-21T11:23:03;4.73;;;4.33;;
6392;SDS011;3229;42.674;23.282;2024-02-21T11:25:30;4.53;;;4.13;;
6392;SDS011;3229;42.674;23.282;2024-02-21T11:27:59;3.77;;;3.47;;
6392;SDS011;3229;42.674;23.282;2024-02-21T11:30:26;4.07;;;3.67;;
6392;SDS011;3229;42.674;23.282;2024-02-21T11:32:59;4.23;;;3.90;;
6392;SDS011;3229;42.674;23.282;2024-02-21T11:35:30;4.67;;;3.77;;
6392;SDS011;3229;42.674;23.282;2024-02-21T11:38:07;3.93;;;3.63;;
6392;SDS011;3229;42.674;23.282;2024-02-21T11:40:35;3.90;;;3.60;;
6392;SDS011;3229;42.674;23.282;2024-02-21T11:43:05;4.20;;;3.90;;
6392;SDS011;3229;42.674;23.282;2024-02-21T11:45:32;4.30;;;3.60;;
6392;SDS011;3229;42.674;23.282;2024-02-21T11:48:00;4.03;;;3.63;;
6392;SDS011;3229;42.674;23.282;2024-02-21T11:50:28;3.40;;;3.13;;
6392;SDS011;3229;42.674;23.282;2024-02-21T11:52:57;4.17;;;3.77;;
6392;SDS011;3229;42.674;23.282;2024-02-21T11:55:24;3.60;;;3.30;;
6392;SDS011;3229;42.674;23.282;2024-02-21T11:57:50;3.80;;;3.50;;
6392;SDS011;3229;42.674;23.282;2024-02-21T12:00:17;3.20;;;3.00;;
6392;SDS011;3229;42.674;23.282;2024-02-21T12:02:46;3.70;;;3.40;;
6392;SDS011;3229;42.674;23.282;2024-02-21T12:05:14;5.23;;;3.37;;
6392;SDS011;3229;42.674;23.282;2024-02-21T12:07:41;4.73;;;3.63;;
6392;SDS011;3229;42.674;23.282;2024-02-21T12:10:09;3.70;;;3.40;;
6392;SDS011;3229;42.674;23.282;2024-02-21T12:12:36;3.40;;;3.10;;
6392;SDS011;3229;42.674;23.282;2024-02-21T12:15:04;4.00;;;3.60;;
6392;SDS011;3229;42.674;23.282;2024-02-21T12:17:32;3.27;;;3.07;;
6392;SDS011;3229;42.674;23.282;2024-02-21T12:20:00;3.97;;;3.37;;
6392;SDS011;3229;42.674;23.282;2024-02-21T12:22:30;4.03;;;3.73;;
6392;SDS011;3229;42.674;23.282;2024-02-21T12:24:57;3.73;;;3.43;;
6392;SDS011;3229;42.674;23.282;2024-02-21T12:27:24;3.90;;;3.50;;
6392;SDS011;3229;42.674;23.282;2024-02-21T12:29:51;6.43;;;3.50;;
6392;SDS011;3229;42.674;23.282;2024-02-21T12:32:18;3.47;;;3.17;;
6392;SDS011;3229;42.674;23.282;2024-02-21T12:34:46;4.70;;;3.37;;
6392;SDS011;3229;42.674;23.282;2024-02-21T12:37:13;3.83;;;3.37;;
6392;SDS011;3229;42.674;23.282;2024-02-21T12:39:42;7.17;;;3.90;;
6392;SDS011;3229;42.674;23.282;2024-02-21T12:42:09;3.63;;;3.33;;
6392;SDS011;3229;42.674;23.282;2024-02-21T12:44:37;3.80;;;3.50;;
6392;SDS011;3229;42.674;23.282;2024-02-21T12:47:04;3.90;;;3.37;;
6392;SDS011;3229;42.674;23.282;2024-02-21T12:49:30;4.70;;;3.97;;
6392;SDS011;3229;42.674;23.282;2024-02-21T12:51:57;5.80;;;4.00;;
6392;SDS011;3229;42.674;23.282;2024-02-21T12:54:24;4.33;;;3.23;;
6392;SDS011;3229;42.674;23.282;2024-02-21T12:56:53;4.73;;;3.60;;
6392;SDS011;3229;42.674;23.282;2024-02-21T12:59:20;3.30;;;3.00;;
6392;SDS011;3229;42.674;23.282;2024-02-21T13:01:47;4.57;;;4.17;;
6392;SDS011;3229;42.674;23.282;2024-02-21T13:04:14;3.70;;;3.40;;
6392;SDS011;3229;42.674;23.282;2024-02-21T13:06:40;4.30;;;3.90;;
6392;SDS011;3229;42.674;23.282;2024-02-21T13:09:07;4.33;;;3.67;;
6392;SDS011;3229;42.674;23.282;2024-02-21T13:11:37;3.90;;;3.60;;
6392;SDS011;3229;42.674;23.282;2024-02-21T13:14:06;7.97;;;4.03;;
6392;SDS011;3229;42.674;23.282;2024-02-21T13:16:33;3.77;;;3.47;;
6392;SDS011;3229;42.674;23.282;2024-02-21T13:19:04;4.53;;;4.03;;
6392;SDS011;3229;42.674;23.282;2024-02-21T13:21:31;4.43;;;4.03;;
6392;SDS011;3229;42.674;23.282;2024-02-21T13:23:58;6.87;;;4.03;;
6392;SDS011;3229;42.674;23.282;2024-02-21T13:26:24;4.17;;;3.67;;
6392;SDS011;3229;42.674;23.282;2024-02-21T13:28:51;5.13;;;3.80;;
6392;SDS011;3229;42.674;23.282;2024-02-21T13:31:19;4.73;;;4.10;;
6392;SDS011;3229;42.674;23.282;2024-02-21T13:33:47;4.73;;;4.23;;
6392;SDS011;3229;42.674;23.282;2024-02-21T13:36:13;4.37;;;3.97;;
6392;SDS011;3229;42.674;23.282;2024-02-21T13:38:40;5.00;;;4.30;;
6392;SDS011;3229;42.674;23.282;2024-02-21T13:41:07;4.80;;;4.20;;
6392;SDS011;3229;42.674;23.282;2024-02-21T13:43:34;4.73;;;3.93;;
6392;SDS011;3229;42.674;23.282;2024-02-21T13:46:01;5.03;;;4.17;;
6392;SDS011;3229;42.674;23.282;2024-02-21T13:48:31;3.90;;;3.60;;
6392;SDS011;3229;42.674;23.282;2024-02-21T13:54:20;4.17;;;3.87;;
6392;SDS011;3229;42.674;23.282;2024-02-21T13:56:47;4.53;;;4.13;;
6392;SDS011;3229;42.674;23.282;2024-02-21T13:59:13;4.73;;;4.07;;
6392;SDS011;3229;42.674;23.282;2024-02-21T14:01:43;5.10;;;4.03;;
6392;SDS011;3229;42.674;23.282;2024-02-21T14:04:11;4.57;;;3.90;;
6392;SDS011;3229;42.674;23.282;2024-02-21T14:06:38;6.10;;;4.30;;
6392;SDS011;3229;42.674;23.282;2024-02-21T14:09:10;4.60;;;4.00;;
6392;SDS011;3229;42.674;23.282;2024-02-21T14:11:37;4.90;;;4.10;;
6392;SDS011;3229;42.674;23.282;2024-02-21T14:14:05;4.87;;;4.37;;
6392;SDS011;3229;42.674;23.282;2024-02-21T14:16:31;4.50;;;3.90;;
6392;SDS011;3229;42.674;23.282;2024-02-21T14:18:58;4.50;;;4.10;;
6392;SDS011;3229;42.674;23.282;2024-02-21T14:21:27;4.73;;;4.33;;
6392;SDS011;3229;42.674;23.282;2024-02-21T14:23:55;4.70;;;4.30;;
6392;SDS011;3229;42.674;23.282;2024-02-21T14:26:23;4.10;;;3.60;;
6392;SDS011;3229;42.674;23.282;2024-02-21T14:28:50;5.07;;;4.57;;
6392;SDS011;3229;42.674;23.282;2024-02-21T14:31:16;4.87;;;4.13;;
6392;SDS011;3229;42.674;23.282;2024-02-21T14:33:43;4.90;;;3.47;;
6392;SDS011;3229;42.674;23.282;2024-02-21T14:36:11;4.47;;;4.07;;
6392;SDS011;3229;42.674;23.282;2024-02-21T14:38:39;4.07;;;3.70;;
6392;SDS011;3229;42.674;23.282;2024-02-21T14:41:06;4.37;;;3.97;;
6392;SDS011;3229;42.674;23.282;2024-02-21T14:43:33;4.63;;;3.90;;
6392;SDS011;3229;42.674;23.282;2024-02-21T14:46:00;4.67;;;3.93;;
6392;SDS011;3229;42.674;23.282;2024-02-21T14:48:29;4.17;;;3.80;;
6392;SDS011;3229;42.674;23.282;2024-02-21T14:50:57;4.40;;;3.90;;
6392;SDS011;3229;42.674;23.282;2024-02-21T14:53:24;4.57;;;4.10;;
6392;SDS011;3229;42.674;23.282;2024-02-21T14:55:52;5.63;;;4.27;;
6392;SDS011;3229;42.674;23.282;2024-02-21T14:58:19;5.90;;;4.40;;
6392;SDS011;3229;42.674;23.282;2024-02-21T15:00:45;7.60;;;4.17;;
6392;SDS011;3229;42.674;23.282;2024-02-21T15:03:12;7.33;;;4.13;;
6392;SDS011;3229;42.674;23.282;2024-02-21T15:05:40;4.10;;;3.63;;
6392;SDS011;3229;42.674;23.282;2024-02-21T15:08:07;4.27;;;3.87;;